sensor_id;sensor_type;location;lat;lon;timestamp;temperature;humidity
7934;DHT22;4012;48.896;9.192;2022-09-25T00:00:30;13.50;99.90
7934;DHT22;4012;48.896;9.192;2022-09-25T00:02:55;13.50;99.90
7934;DHT22;4012;48.896;9.192;2022-09-25T00:05:21;13.50;99.90
7934;DHT22;4012;48.896;9.192;2022-09-25T00:07:47;13.50;99.90
7934;DHT22;4012;48.896;9.192;2022-09-25T00:10:12;13.40;99.90
7934;DHT22;4012;48.896;9.192;2022-09-25T00:12:38;13.50;99.90
7934;DHT22;4012;48.896;9.192;2022-09-25T00:15:04;13.50;99.90
7934;DHT22;4012;48.896;9.192;2022-09-25T00:17:29;13.50;99.90
7934;DHT22;4012;48.896;9.192;2022-09-25T00:19:55;13.50;99.90
7934;DHT22;4012;48.896;9.192;2022-09-25T00:22:22;13.50;99.90
7934;DHT22;4012;48.896;9.192;2022-09-25T00:24:49;13.50;99.90
7934;DHT22;4012;48.896;9.192;2022-09-25T00:27:16;13.50;99.90
7934;DHT22;4012;48.896;9.192;2022-09-25T00:29:42;13.50;99.90
7934;DHT22;4012;48.896;9.192;2022-09-25T00:32:10;13.50;99.90
7934;DHT22;4012;48.896;9.192;2022-09-25T00:34:37;13.50;99.90
7934;DHT22;4012;48.896;9.192;2022-09-25T00:37:03;13.50;99.90
7934;DHT22;4012;48.896;9.192;2022-09-25T00:39:29;13.50;99.90
7934;DHT22;4012;48.896;9.192;2022-09-25T00:41:55;13.60;99.90
7934;DHT22;4012;48.896;9.192;2022-09-25T00:47:15;13.60;99.90
7934;DHT22;4012;48.896;9.192;2022-09-25T00:49:42;13.50;99.90
7934;DHT22;4012;48.896;9.192;2022-09-25T00:52:10;13.50;99.90
7934;DHT22;4012;48.896;9.192;2022-09-25T00:54:46;13.50;99.90
7934;DHT22;4012;48.896;9.192;2022-09-25T00:57:19;13.50;99.90
7934;DHT22;4012;48.896;9.192;2022-09-25T00:59:48;13.50;99.90
7934;DHT22;4012;48.896;9.192;2022-09-25T01:02:28;13.50;99.90
7934;DHT22;4012;48.896;9.192;2022-09-25T01:05:00;13.40;99.90
7934;DHT22;4012;48.896;9.192;2022-09-25T01:07:26;13.30;99.90
7934;DHT22;4012;48.896;9.192;2022-09-25T01:09:51;13.30;99.90
7934;DHT22;4012;48.896;9.192;2022-09-25T01:12:19;13.20;99.90
7934;DHT22;4012;48.896;9.192;2022-09-25T01:14:45;13.30;99.90
7934;DHT22;4012;48.896;9.192;2022-09-25T01:30:52;13.30;99.90
7934;DHT22;4012;48.896;9.192;2022-09-25T01:33:35;13.30;99.90
7934;DHT22;4012;48.896;9.192;2022-09-25T01:36:21;13.30;99.90
7934;DHT22;4012;48.896;9.192;2022-09-25T01:38:54;13.40;99.90
7934;DHT22;4012;48.896;9.192;2022-09-25T01:41:25;13.40;99.90
7934;DHT22;4012;48.896;9.192;2022-09-25T01:44:06;13.40;99.90
7934;DHT22;4012;48.896;9.192;2022-09-25T01:46:41;13.40;99.90
7934;DHT22;4012;48.896;9.192;2022-09-25T01:49:17;13.40;99.90
7934;DHT22;4012;48.896;9.192;2022-09-25T01:51:51;13.30;99.90
7934;DHT22;4012;48.896;9.192;2022-09-25T01:54:32;13.40;99.90
7934;DHT22;4012;48.896;9.192;2022-09-25T01:59:46;13.40;99.90
7934;DHT22;4012;48.896;9.192;2022-09-25T02:02:17;13.40;99.90
7934;DHT22;4012;48.896;9.192;2022-09-25T02:05:33;13.40;99.90
7934;DHT22;4012;48.896;9.192;2022-09-25T02:07:44;13.50;99.90
7934;DHT22;4012;48.896;9.192;2022-09-25T02:10:43;13.40;99.90
7934;DHT22;4012;48.896;9.192;2022-09-25T02:13:16;13.50;99.90
7934;DHT22;4012;48.896;9.192;2022-09-25T02:15:52;13.50;99.90
7934;DHT22;4012;48.896;9.192;2022-09-25T02:18:20;13.50;99.90
7934;DHT22;4012;48.896;9.192;2022-09-25T02:24:01;13.40;99.90
7934;DHT22;4012;48.896;9.192;2022-09-25T02:26:30;13.30;99.90
7934;DHT22;4012;48.896;9.192;2022-09-25T02:28:56;13.30;99.90
7934;DHT22;4012;48.896;9.192;2022-09-25T02:31:27;13.20;99.90
7934;DHT22;4012;48.896;9.192;2022-09-25T02:33:56;13.20;99.90
7934;DHT22;4012;48.896;9.192;2022-09-25T02:36:22;13.20;99.90
7934;DHT22;4012;48.896;9.192;2022-09-25T02:38:49;13.20;99.90
7934;DHT22;4012;48.896;9.192;2022-09-25T02:41:48;13.20;99.90
7934;DHT22;4012;48.896;9.192;2022-09-25T02:55:40;13.10;99.90
7934;DHT22;4012;48.896;9.192;2022-09-25T02:58:16;13.10;99.90
7934;DHT22;4012;48.896;9.192;2022-09-25T03:00:44;13.00;99.90
7934;DHT22;4012;48.896;9.192;2022-09-25T03:03:13;13.00;99.90
7934;DHT22;4012;48.896;9.192;2022-09-25T03:05:40;13.00;99.90
7934;DHT22;4012;48.896;9.192;2022-09-25T03:08:06;13.00;99.90
7934;DHT22;4012;48.896;9.192;2022-09-25T03:10:50;13.00;99.90
7934;DHT22;4012;48.896;9.192;2022-09-25T03:13:22;13.00;99.90
7934;DHT22;4012;48.896;9.192;2022-09-25T03:16:01;13.00;99.90
7934;DHT22;4012;48.896;9.192;2022-09-25T03:18:27;13.10;99.90
7934;DHT22;4012;48.896;9.192;2022-09-25T03:20:54;13.10;99.90
7934;DHT22;4012;48.896;9.192;2022-09-25T03:23:19;13.10;99.90
7934;DHT22;4012;48.896;9.192;2022-09-25T03:25:45;13.10;99.90
7934;DHT22;4012;48.896;9.192;2022-09-25T03:28:13;13.00;99.90
7934;DHT22;4012;48.896;9.192;2022-09-25T03:30:39;13.00;99.90
7934;DHT22;4012;48.896;9.192;2022-09-25T03:33:09;13.00;99.90
7934;DHT22;4012;48.896;9.192;2022-09-25T03:35:38;13.00;99.90
7934;DHT22;4012;48.896;9.192;2022-09-25T03:38:05;13.00;99.90
7934;DHT22;4012;48.896;9.192;2022-09-25T03:40:32;12.90;99.90
7934;DHT22;4012;48.896;9.192;2022-09-25T03:42:58;12.90;99.90
7934;DHT22;4012;48.896;9.192;2022-09-25T03:45:24;13.00;99.90
7934;DHT22;4012;48.896;9.192;2022-09-25T03:47:49;13.00;99.90
7934;DHT22;4012;48.896;9.192;2022-09-25T03:50:15;13.00;99.90
7934;DHT22;4012;48.896;9.192;2022-09-25T03:52:40;13.00;99.90
7934;DHT22;4012;48.896;9.192;2022-09-25T03:55:06;13.00;99.90
7934;DHT22;4012;48.896;9.192;2022-09-25T03:57:32;13.10;99.90
7934;DHT22;4012;48.896;9.192;2022-09-25T03:59:58;13.10;99.90
7934;DHT22;4012;48.896;9.192;2022-09-25T04:02:27;13.10;99.90
7934;DHT22;4012;48.896;9.192;2022-09-25T04:04:53;13.10;99.90
7934;DHT22;4012;48.896;9.192;2022-09-25T04:07:20;13.10;99.90
7934;DHT22;4012;48.896;9.192;2022-09-25T04:09:46;13.10;99.90
7934;DHT22;4012;48.896;9.192;2022-09-25T04:12:11;13.20;99.90
7934;DHT22;4012;48.896;9.192;2022-09-25T04:14:37;13.10;99.90
7934;DHT22;4012;48.896;9.192;2022-09-25T04:17:03;13.10;99.90
7934;DHT22;4012;48.896;9.192;2022-09-25T04:19:28;13.10;99.90
7934;DHT22;4012;48.896;9.192;2022-09-25T04:21:54;13.10;99.90
7934;DHT22;4012;48.896;9.192;2022-09-25T04:24:19;13.10;99.90
7934;DHT22;4012;48.896;9.192;2022-09-25T04:27:04;13.10;99.90
7934;DHT22;4012;48.896;9.192;2022-09-25T04:29:29;13.00;99.90
7934;DHT22;4012;48.896;9.192;2022-09-25T04:31:56;13.10;99.90
7934;DHT22;4012;48.896;9.192;2022-09-25T04:34:40;13.10;99.90
7934;DHT22;4012;48.896;9.192;2022-09-25T04:37:06;13.10;99.90
7934;DHT22;4012;48.896;9.192;2022-09-25T04:39:32;13.10;99.90
7934;DHT22;4012;48.896;9.192;2022-09-25T04:41:57;13.00;99.90
7934;DHT22;4012;48.896;9.192;2022-09-25T04:44:23;13.00;99.90
7934;DHT22;4012;48.896;9.192;2022-09-25T04:46:48;13.00;99.90
7934;DHT22;4012;48.896;9.192;2022-09-25T04:49:14;13.00;99.90
7934;DHT22;4012;48.896;9.192;2022-09-25T04:51:40;13.00;99.90
7934;DHT22;4012;48.896;9.192;2022-09-25T04:54:05;13.00;99.90
7934;DHT22;4012;48.896;9.192;2022-09-25T04:56:31;13.00;99.90
7934;DHT22;4012;48.896;9.192;2022-09-25T04:58:56;13.00;99.90
7934;DHT22;4012;48.896;9.192;2022-09-25T05:01:22;13.00;99.90
7934;DHT22;4012;48.896;9.192;2022-09-25T05:03:49;13.00;99.90
7934;DHT22;4012;48.896;9.192;2022-09-25T05:06:15;13.00;99.90
7934;DHT22;4012;48.896;9.192;2022-09-25T05:08:41;13.00;99.90
7934;DHT22;4012;48.896;9.192;2022-09-25T05:11:06;13.00;99.90
7934;DHT22;4012;48.896;9.192;2022-09-25T05:13:32;13.00;99.90
7934;DHT22;4012;48.896;9.192;2022-09-25T05:15:58;13.10;99.90
7934;DHT22;4012;48.896;9.192;2022-09-25T05:18:24;13.20;99.90
7934;DHT22;4012;48.896;9.192;2022-09-25T05:20:50;13.20;99.90
7934;DHT22;4012;48.896;9.192;2022-09-25T05:23:17;13.20;99.90
7934;DHT22;4012;48.896;9.192;2022-09-25T05:25:43;13.20;99.90
7934;DHT22;4012;48.896;9.192;2022-09-25T05:28:14;13.10;99.90
7934;DHT22;4012;48.896;9.192;2022-09-25T05:30:41;13.10;99.90
7934;DHT22;4012;48.896;9.192;2022-09-25T05:33:08;13.00;99.90
7934;DHT22;4012;48.896;9.192;2022-09-25T05:35:33;13.10;99.90
7934;DHT22;4012;48.896;9.192;2022-09-25T05:37:59;13.10;99.90
7934;DHT22;4012;48.896;9.192;2022-09-25T05:40:25;13.10;99.90
7934;DHT22;4012;48.896;9.192;2022-09-25T05:42:51;13.10;99.90
7934;DHT22;4012;48.896;9.192;2022-09-25T05:45:18;13.10;99.90
7934;DHT22;4012;48.896;9.192;2022-09-25T05:47:45;13.10;99.90
7934;DHT22;4012;48.896;9.192;2022-09-25T05:50:13;13.20;99.90
7934;DHT22;4012;48.896;9.192;2022-09-25T05:52:39;13.20;99.90
7934;DHT22;4012;48.896;9.192;2022-09-25T05:55:05;13.20;99.90
7934;DHT22;4012;48.896;9.192;2022-09-25T05:57:33;13.20;99.90
7934;DHT22;4012;48.896;9.192;2022-09-25T06:00:00;13.20;99.90
7934;DHT22;4012;48.896;9.192;2022-09-25T06:02:26;13.20;99.90
7934;DHT22;4012;48.896;9.192;2022-09-25T06:04:52;13.30;99.90
7934;DHT22;4012;48.896;9.192;2022-09-25T06:07:18;13.30;99.90
7934;DHT22;4012;48.896;9.192;2022-09-25T06:09:43;13.20;99.90
7934;DHT22;4012;48.896;9.192;2022-09-25T06:12:09;13.20;99.90
7934;DHT22;4012;48.896;9.192;2022-09-25T06:14:34;13.20;99.90
7934;DHT22;4012;48.896;9.192;2022-09-25T06:17:01;13.20;99.90
7934;DHT22;4012;48.896;9.192;2022-09-25T06:19:27;13.20;99.90
7934;DHT22;4012;48.896;9.192;2022-09-25T06:21:56;13.30;99.90
7934;DHT22;4012;48.896;9.192;2022-09-25T06:24:24;13.20;99.90
7934;DHT22;4012;48.896;9.192;2022-09-25T06:26:50;13.30;99.90
7934;DHT22;4012;48.896;9.192;2022-09-25T06:29:15;13.40;99.90
7934;DHT22;4012;48.896;9.192;2022-09-25T06:31:41;13.40;99.90
7934;DHT22;4012;48.896;9.192;2022-09-25T06:34:10;13.50;99.90
7934;DHT22;4012;48.896;9.192;2022-09-25T06:36:36;13.40;99.90
7934;DHT22;4012;48.896;9.192;2022-09-25T06:39:03;13.50;99.90
7934;DHT22;4012;48.896;9.192;2022-09-25T06:41:28;13.50;99.90
7934;DHT22;4012;48.896;9.192;2022-09-25T06:43:54;13.50;99.90
7934;DHT22;4012;48.896;9.192;2022-09-25T06:46:20;13.60;99.90
7934;DHT22;4012;48.896;9.192;2022-09-25T06:48:53;13.60;99.90
7934;DHT22;4012;48.896;9.192;2022-09-25T06:51:20;13.70;99.90
7934;DHT22;4012;48.896;9.192;2022-09-25T06:53:46;13.60;99.90
7934;DHT22;4012;48.896;9.192;2022-09-25T06:56:12;13.70;99.90
7934;DHT22;4012;48.896;9.192;2022-09-25T06:58:38;13.70;99.90
7934;DHT22;4012;48.896;9.192;2022-09-25T07:01:04;13.70;99.90
7934;DHT22;4012;48.896;9.192;2022-09-25T07:03:34;13.70;99.90
7934;DHT22;4012;48.896;9.192;2022-09-25T07:06:20;13.70;99.90
7934;DHT22;4012;48.896;9.192;2022-09-25T07:08:47;13.60;99.90
7934;DHT22;4012;48.896;9.192;2022-09-25T07:11:18;13.60;99.90
7934;DHT22;4012;48.896;9.192;2022-09-25T07:13:44;13.70;99.90
7934;DHT22;4012;48.896;9.192;2022-09-25T07:16:15;13.70;99.90
7934;DHT22;4012;48.896;9.192;2022-09-25T07:18:41;13.70;99.90
7934;DHT22;4012;48.896;9.192;2022-09-25T07:21:13;13.70;99.90
7934;DHT22;4012;48.896;9.192;2022-09-25T07:23:39;13.70;99.90
7934;DHT22;4012;48.896;9.192;2022-09-25T07:26:07;13.60;99.90
7934;DHT22;4012;48.896;9.192;2022-09-25T07:28:34;13.70;99.90
7934;DHT22;4012;48.896;9.192;2022-09-25T07:31:10;13.80;99.90
7934;DHT22;4012;48.896;9.192;2022-09-25T07:33:36;13.90;99.90
7934;DHT22;4012;48.896;9.192;2022-09-25T07:36:01;13.90;99.90
7934;DHT22;4012;48.896;9.192;2022-09-25T07:38:27;14.00;99.90
7934;DHT22;4012;48.896;9.192;2022-09-25T07:40:52;14.10;99.90
7934;DHT22;4012;48.896;9.192;2022-09-25T07:43:18;14.20;99.90
7934;DHT22;4012;48.896;9.192;2022-09-25T07:45:50;14.10;99.90
7934;DHT22;4012;48.896;9.192;2022-09-25T07:48:19;14.20;99.90
7934;DHT22;4012;48.896;9.192;2022-09-25T07:50:48;14.10;99.90
7934;DHT22;4012;48.896;9.192;2022-09-25T07:53:15;14.20;99.90
7934;DHT22;4012;48.896;9.192;2022-09-25T07:55:42;14.30;99.90
7934;DHT22;4012;48.896;9.192;2022-09-25T07:58:09;14.50;99.90
7934;DHT22;4012;48.896;9.192;2022-09-25T08:00:34;14.60;99.90
7934;DHT22;4012;48.896;9.192;2022-09-25T08:03:00;14.60;99.90
7934;DHT22;4012;48.896;9.192;2022-09-25T08:05:26;14.50;99.90
7934;DHT22;4012;48.896;9.192;2022-09-25T08:07:52;14.40;99.90
7934;DHT22;4012;48.896;9.192;2022-09-25T08:10:19;14.40;99.90
7934;DHT22;4012;48.896;9.192;2022-09-25T08:12:44;14.50;99.90
7934;DHT22;4012;48.896;9.192;2022-09-25T08:15:10;14.50;99.90
7934;DHT22;4012;48.896;9.192;2022-09-25T08:17:39;14.60;99.90
7934;DHT22;4012;48.896;9.192;2022-09-25T08:20:05;14.50;99.90
7934;DHT22;4012;48.896;9.192;2022-09-25T08:22:31;14.50;99.90
7934;DHT22;4012;48.896;9.192;2022-09-25T08:24:58;14.50;99.90
7934;DHT22;4012;48.896;9.192;2022-09-25T08:27:26;14.60;99.90
7934;DHT22;4012;48.896;9.192;2022-09-25T08:29:52;14.50;99.90
7934;DHT22;4012;48.896;9.192;2022-09-25T08:32:17;14.50;99.90
7934;DHT22;4012;48.896;9.192;2022-09-25T08:34:43;14.60;99.90
7934;DHT22;4012;48.896;9.192;2022-09-25T08:37:09;14.80;99.90
7934;DHT22;4012;48.896;9.192;2022-09-25T08:39:35;14.80;99.90
7934;DHT22;4012;48.896;9.192;2022-09-25T08:42:00;14.60;99.90
7934;DHT22;4012;48.896;9.192;2022-09-25T08:50:14;15.50;99.90
7934;DHT22;4012;48.896;9.192;2022-09-25T08:52:42;15.20;99.90
7934;DHT22;4012;48.896;9.192;2022-09-25T08:55:29;15.20;99.90
7934;DHT22;4012;48.896;9.192;2022-09-25T08:58:21;15.10;99.90
7934;DHT22;4012;48.896;9.192;2022-09-25T09:00:52;14.80;99.90
7934;DHT22;4012;48.896;9.192;2022-09-25T09:03:23;14.90;99.90
7934;DHT22;4012;48.896;9.192;2022-09-25T09:06:00;15.10;99.90
7934;DHT22;4012;48.896;9.192;2022-09-25T09:08:28;15.30;99.90
7934;DHT22;4012;48.896;9.192;2022-09-25T09:11:02;15.50;99.90
7934;DHT22;4012;48.896;9.192;2022-09-25T09:16:18;15.40;99.90
7934;DHT22;4012;48.896;9.192;2022-09-25T09:18:45;15.50;99.90
7934;DHT22;4012;48.896;9.192;2022-09-25T09:21:19;15.30;99.90
7934;DHT22;4012;48.896;9.192;2022-09-25T09:26:18;15.10;99.90
7934;DHT22;4012;48.896;9.192;2022-09-25T09:37:18;14.70;99.90
7934;DHT22;4012;48.896;9.192;2022-09-25T09:40:20;14.50;99.90
7934;DHT22;4012;48.896;9.192;2022-09-25T09:43:02;14.50;99.90
7934;DHT22;4012;48.896;9.192;2022-09-25T09:48:31;14.80;99.90
7934;DHT22;4012;48.896;9.192;2022-09-25T09:51:24;15.00;99.90
7934;DHT22;4012;48.896;9.192;2022-09-25T09:53:56;14.90;99.90
7934;DHT22;4012;48.896;9.192;2022-09-25T09:56:32;15.00;99.90
7934;DHT22;4012;48.896;9.192;2022-09-25T09:59:05;15.30;99.90
7934;DHT22;4012;48.896;9.192;2022-09-25T10:01:38;15.30;99.90
7934;DHT22;4012;48.896;9.192;2022-09-25T10:04:11;15.40;99.90
7934;DHT22;4012;48.896;9.192;2022-09-25T10:06:50;15.30;99.90
7934;DHT22;4012;48.896;9.192;2022-09-25T10:09:17;15.20;99.90
7934;DHT22;4012;48.896;9.192;2022-09-25T10:11:44;15.20;99.90
7934;DHT22;4012;48.896;9.192;2022-09-25T10:14:16;15.10;99.90
7934;DHT22;4012;48.896;9.192;2022-09-25T10:16:47;15.00;99.90
7934;DHT22;4012;48.896;9.192;2022-09-25T10:19:17;15.00;99.90
7934;DHT22;4012;48.896;9.192;2022-09-25T10:21:51;15.10;99.90
7934;DHT22;4012;48.896;9.192;2022-09-25T10:24:50;15.40;99.90
7934;DHT22;4012;48.896;9.192;2022-09-25T10:27:37;15.80;99.90
7934;DHT22;4012;48.896;9.192;2022-09-25T10:35:38;16.00;99.90
7934;DHT22;4012;48.896;9.192;2022-09-25T10:41:13;15.50;99.90
7934;DHT22;4012;48.896;9.192;2022-09-25T10:43:55;15.30;99.90
7934;DHT22;4012;48.896;9.192;2022-09-25T10:46:32;15.40;99.90
7934;DHT22;4012;48.896;9.192;2022-09-25T10:49:25;15.20;99.90
7934;DHT22;4012;48.896;9.192;2022-09-25T10:52:14;15.20;99.90
7934;DHT22;4012;48.896;9.192;2022-09-25T10:54:40;15.20;99.90
7934;DHT22;4012;48.896;9.192;2022-09-25T10:57:34;15.10;99.90
7934;DHT22;4012;48.896;9.192;2022-09-25T11:00:08;15.00;99.90
7934;DHT22;4012;48.896;9.192;2022-09-25T11:02:44;15.20;99.90
7934;DHT22;4012;48.896;9.192;2022-09-25T11:05:17;15.00;99.90
7934;DHT22;4012;48.896;9.192;2022-09-25T11:08:03;15.10;99.90
7934;DHT22;4012;48.896;9.192;2022-09-25T11:10:33;15.10;99.90
7934;DHT22;4012;48.896;9.192;2022-09-25T11:13:08;15.20;99.90
7934;DHT22;4012;48.896;9.192;2022-09-25T11:15:47;15.30;99.90
7934;DHT22;4012;48.896;9.192;2022-09-25T11:21:01;15.70;99.90
7934;DHT22;4012;48.896;9.192;2022-09-25T11:23:40;15.80;99.90
7934;DHT22;4012;48.896;9.192;2022-09-25T11:26:20;16.00;99.90
7934;DHT22;4012;48.896;9.192;2022-09-25T11:29:31;16.20;99.90
7934;DHT22;4012;48.896;9.192;2022-09-25T11:32:04;16.00;99.90
7934;DHT22;4012;48.896;9.192;2022-09-25T11:37:30;16.50;99.90
7934;DHT22;4012;48.896;9.192;2022-09-25T11:43:07;16.70;99.90
7934;DHT22;4012;48.896;9.192;2022-09-25T11:45:39;16.90;99.90
7934;DHT22;4012;48.896;9.192;2022-09-25T11:48:15;16.80;99.90
7934;DHT22;4012;48.896;9.192;2022-09-25T11:53:32;17.10;99.90
7934;DHT22;4012;48.896;9.192;2022-09-25T12:01:40;16.90;99.90
7934;DHT22;4012;48.896;9.192;2022-09-25T12:04:43;17.00;99.90
7934;DHT22;4012;48.896;9.192;2022-09-25T12:12:54;17.00;99.90
7934;DHT22;4012;48.896;9.192;2022-09-25T12:15:48;16.70;99.90
7934;DHT22;4012;48.896;9.192;2022-09-25T12:20:51;16.60;99.90
7934;DHT22;4012;48.896;9.192;2022-09-25T12:23:32;16.80;99.90
7934;DHT22;4012;48.896;9.192;2022-09-25T12:26:04;17.00;99.90
7934;DHT22;4012;48.896;9.192;2022-09-25T12:31:44;17.50;99.90
7934;DHT22;4012;48.896;9.192;2022-09-25T12:37:32;17.10;99.90
7934;DHT22;4012;48.896;9.192;2022-09-25T12:40:03;17.20;99.90
7934;DHT22;4012;48.896;9.192;2022-09-25T12:53:20;17.10;99.90
7934;DHT22;4012;48.896;9.192;2022-09-25T12:55:55;17.10;99.90
7934;DHT22;4012;48.896;9.192;2022-09-25T12:58:49;17.10;99.90
7934;DHT22;4012;48.896;9.192;2022-09-25T13:01:18;16.90;99.90
7934;DHT22;4012;48.896;9.192;2022-09-25T13:06:52;16.70;99.90
7934;DHT22;4012;48.896;9.192;2022-09-25T13:11:53;16.90;99.90
7934;DHT22;4012;48.896;9.192;2022-09-25T13:14:34;17.10;99.90
7934;DHT22;4012;48.896;9.192;2022-09-25T13:17:01;16.90;99.90
7934;DHT22;4012;48.896;9.192;2022-09-25T13:19:29;17.00;99.90
7934;DHT22;4012;48.896;9.192;2022-09-25T13:22:13;16.90;99.90
7934;DHT22;4012;48.896;9.192;2022-09-25T13:24:49;17.30;99.90
7934;DHT22;4012;48.896;9.192;2022-09-25T13:27:22;17.40;99.90
7934;DHT22;4012;48.896;9.192;2022-09-25T13:29:57;17.20;99.90
7934;DHT22;4012;48.896;9.192;2022-09-25T13:32:26;17.30;99.90
7934;DHT22;4012;48.896;9.192;2022-09-25T13:34:58;17.60;99.90
7934;DHT22;4012;48.896;9.192;2022-09-25T13:37:33;18.00;99.90
7934;DHT22;4012;48.896;9.192;2022-09-25T13:40:00;17.90;99.90
7934;DHT22;4012;48.896;9.192;2022-09-25T13:43:22;17.30;99.90
7934;DHT22;4012;48.896;9.192;2022-09-25T13:48:46;17.00;99.90
7934;DHT22;4012;48.896;9.192;2022-09-25T13:56:43;16.90;99.90
7934;DHT22;4012;48.896;9.192;2022-09-25T14:01:53;16.60;99.90
7934;DHT22;4012;48.896;9.192;2022-09-25T14:04:32;16.60;99.90
7934;DHT22;4012;48.896;9.192;2022-09-25T14:07:16;16.60;99.90
7934;DHT22;4012;48.896;9.192;2022-09-25T14:09:46;16.50;99.90
7934;DHT22;4012;48.896;9.192;2022-09-25T14:15:00;16.20;99.90
7934;DHT22;4012;48.896;9.192;2022-09-25T14:17:29;16.20;99.90
7934;DHT22;4012;48.896;9.192;2022-09-25T14:19:57;16.10;99.90
7934;DHT22;4012;48.896;9.192;2022-09-25T14:22:48;16.10;99.90
7934;DHT22;4012;48.896;9.192;2022-09-25T14:25:35;16.20;99.90
7934;DHT22;4012;48.896;9.192;2022-09-25T14:34:05;16.80;99.90
7934;DHT22;4012;48.896;9.192;2022-09-25T14:37:06;16.80;99.90
7934;DHT22;4012;48.896;9.192;2022-09-25T14:47:38;16.80;99.90
7934;DHT22;4012;48.896;9.192;2022-09-25T14:50:20;16.80;99.90
7934;DHT22;4012;48.896;9.192;2022-09-25T14:52:46;16.60;99.90
7934;DHT22;4012;48.896;9.192;2022-09-25T14:55:16;16.80;99.90
7934;DHT22;4012;48.896;9.192;2022-09-25T14:57:46;16.60;99.90
7934;DHT22;4012;48.896;9.192;2022-09-25T15:00:16;16.70;99.90
7934;DHT22;4012;48.896;9.192;2022-09-25T15:02:44;16.60;99.90
7934;DHT22;4012;48.896;9.192;2022-09-25T15:07:52;16.50;99.90
7934;DHT22;4012;48.896;9.192;2022-09-25T15:12:48;16.50;99.90
7934;DHT22;4012;48.896;9.192;2022-09-25T15:15:16;16.30;99.90
7934;DHT22;4012;48.896;9.192;2022-09-25T15:17:50;16.30;99.90
7934;DHT22;4012;48.896;9.192;2022-09-25T15:20:20;16.20;99.90
7934;DHT22;4012;48.896;9.192;2022-09-25T15:22:59;16.10;99.90
7934;DHT22;4012;48.896;9.192;2022-09-25T15:25:31;16.20;99.90
7934;DHT22;4012;48.896;9.192;2022-09-25T15:27:57;16.20;99.90
7934;DHT22;4012;48.896;9.192;2022-09-25T15:30:26;15.90;99.90
7934;DHT22;4012;48.896;9.192;2022-09-25T15:32:53;15.90;99.90
7934;DHT22;4012;48.896;9.192;2022-09-25T15:35:26;15.80;99.90
7934;DHT22;4012;48.896;9.192;2022-09-25T15:38:11;15.80;99.90
7934;DHT22;4012;48.896;9.192;2022-09-25T15:40:38;15.90;99.90
7934;DHT22;4012;48.896;9.192;2022-09-25T15:43:11;15.90;99.90
7934;DHT22;4012;48.896;9.192;2022-09-25T15:45:44;15.90;99.90
7934;DHT22;4012;48.896;9.192;2022-09-25T15:48:20;15.90;99.90
7934;DHT22;4012;48.896;9.192;2022-09-25T15:50:47;16.00;99.90
7934;DHT22;4012;48.896;9.192;2022-09-25T15:53:25;16.10;99.90
7934;DHT22;4012;48.896;9.192;2022-09-25T15:56:02;16.00;99.90
7934;DHT22;4012;48.896;9.192;2022-09-25T15:58:28;16.10;99.90
7934;DHT22;4012;48.896;9.192;2022-09-25T16:00:57;16.00;99.90
7934;DHT22;4012;48.896;9.192;2022-09-25T16:03:48;15.70;99.90
7934;DHT22;4012;48.896;9.192;2022-09-25T16:06:42;15.70;99.90
7934;DHT22;4012;48.896;9.192;2022-09-25T16:09:29;15.60;99.90
7934;DHT22;4012;48.896;9.192;2022-09-25T16:14:44;15.10;99.90
7934;DHT22;4012;48.896;9.192;2022-09-25T16:17:29;15.10;99.90
7934;DHT22;4012;48.896;9.192;2022-09-25T16:20:10;15.00;99.90
7934;DHT22;4012;48.896;9.192;2022-09-25T16:22:53;14.90;99.90
7934;DHT22;4012;48.896;9.192;2022-09-25T16:25:33;14.90;99.90
7934;DHT22;4012;48.896;9.192;2022-09-25T16:28:12;14.70;99.90
7934;DHT22;4012;48.896;9.192;2022-09-25T16:30:47;14.60;99.90
7934;DHT22;4012;48.896;9.192;2022-09-25T16:33:23;14.60;99.90
7934;DHT22;4012;48.896;9.192;2022-09-25T16:35:50;14.60;99.90
7934;DHT22;4012;48.896;9.192;2022-09-25T16:38:35;14.70;99.90
7934;DHT22;4012;48.896;9.192;2022-09-25T16:43:35;14.60;99.90
7934;DHT22;4012;48.896;9.192;2022-09-25T16:46:12;14.50;99.90
7934;DHT22;4012;48.896;9.192;2022-09-25T16:48:40;14.50;99.90
7934;DHT22;4012;48.896;9.192;2022-09-25T16:51:32;14.40;99.90
7934;DHT22;4012;48.896;9.192;2022-09-25T16:53:59;14.40;99.90
7934;DHT22;4012;48.896;9.192;2022-09-25T16:56:30;14.30;99.90
7934;DHT22;4012;48.896;9.192;2022-09-25T16:58:56;14.20;99.90
7934;DHT22;4012;48.896;9.192;2022-09-25T17:01:25;14.10;99.90
7934;DHT22;4012;48.896;9.192;2022-09-25T17:03:52;14.00;99.90
7934;DHT22;4012;48.896;9.192;2022-09-25T17:06:21;13.90;99.90
7934;DHT22;4012;48.896;9.192;2022-09-25T17:08:47;13.90;99.90
7934;DHT22;4012;48.896;9.192;2022-09-25T17:11:15;13.90;99.90
7934;DHT22;4012;48.896;9.192;2022-09-25T17:13:41;13.90;99.90
7934;DHT22;4012;48.896;9.192;2022-09-25T17:16:08;13.80;99.90
7934;DHT22;4012;48.896;9.192;2022-09-25T17:18:34;13.80;99.90
7934;DHT22;4012;48.896;9.192;2022-09-25T17:21:02;13.70;99.90
7934;DHT22;4012;48.896;9.192;2022-09-25T17:23:28;13.70;99.90
7934;DHT22;4012;48.896;9.192;2022-09-25T17:28:29;13.70;99.90
7934;DHT22;4012;48.896;9.192;2022-09-25T17:30:57;13.60;99.90
7934;DHT22;4012;48.896;9.192;2022-09-25T17:33:24;13.50;99.90
7934;DHT22;4012;48.896;9.192;2022-09-25T17:35:59;13.40;99.90
7934;DHT22;4012;48.896;9.192;2022-09-25T17:38:27;13.40;99.90
7934;DHT22;4012;48.896;9.192;2022-09-25T17:40:54;13.40;99.90
7934;DHT22;4012;48.896;9.192;2022-09-25T17:43:21;13.40;99.90
7934;DHT22;4012;48.896;9.192;2022-09-25T17:45:49;13.40;99.90
7934;DHT22;4012;48.896;9.192;2022-09-25T17:48:17;13.40;99.90
7934;DHT22;4012;48.896;9.192;2022-09-25T17:50:54;13.30;99.90
7934;DHT22;4012;48.896;9.192;2022-09-25T17:53:22;13.30;99.90
7934;DHT22;4012;48.896;9.192;2022-09-25T17:55:48;13.30;99.90
7934;DHT22;4012;48.896;9.192;2022-09-25T17:58:15;13.20;99.90
7934;DHT22;4012;48.896;9.192;2022-09-25T18:00:42;13.20;99.90
7934;DHT22;4012;48.896;9.192;2022-09-25T18:03:10;13.20;99.90
7934;DHT22;4012;48.896;9.192;2022-09-25T18:05:36;13.20;99.90
7934;DHT22;4012;48.896;9.192;2022-09-25T18:08:03;13.20;99.90
7934;DHT22;4012;48.896;9.192;2022-09-25T18:10:28;13.20;99.90
7934;DHT22;4012;48.896;9.192;2022-09-25T18:12:55;13.30;99.90
7934;DHT22;4012;48.896;9.192;2022-09-25T18:15:21;13.30;99.90
7934;DHT22;4012;48.896;9.192;2022-09-25T18:17:46;13.20;99.90
7934;DHT22;4012;48.896;9.192;2022-09-25T18:20:13;13.20;99.90
7934;DHT22;4012;48.896;9.192;2022-09-25T18:22:57;13.20;99.90
7934;DHT22;4012;48.896;9.192;2022-09-25T18:25:23;13.20;99.90
7934;DHT22;4012;48.896;9.192;2022-09-25T18:27:49;13.20;99.90
7934;DHT22;4012;48.896;9.192;2022-09-25T18:30:18;13.20;99.90
7934;DHT22;4012;48.896;9.192;2022-09-25T18:32:44;13.20;99.90
7934;DHT22;4012;48.896;9.192;2022-09-25T18:35:12;13.20;99.90
7934;DHT22;4012;48.896;9.192;2022-09-25T18:37:41;13.20;99.90
7934;DHT22;4012;48.896;9.192;2022-09-25T18:40:08;13.10;99.90
7934;DHT22;4012;48.896;9.192;2022-09-25T18:42:34;13.10;99.90
7934;DHT22;4012;48.896;9.192;2022-09-25T18:45:00;13.10;99.90
7934;DHT22;4012;48.896;9.192;2022-09-25T18:47:26;13.10;99.90
7934;DHT22;4012;48.896;9.192;2022-09-25T18:49:52;13.20;99.90
7934;DHT22;4012;48.896;9.192;2022-09-25T18:52:18;13.20;99.90
7934;DHT22;4012;48.896;9.192;2022-09-25T18:54:44;13.20;99.90
7934;DHT22;4012;48.896;9.192;2022-09-25T18:57:11;13.20;99.90
7934;DHT22;4012;48.896;9.192;2022-09-25T18:59:37;13.20;99.90